Map

Track Data

SID SEASON NUMBER BASIN SUBBASIN NAME ISO_TIME NATURE LAT LON WMO_WIND WMO_PRES WMO_AGENCY TRACK_TYPE DIST2LAND LANDFALL IFLAG USA_AGENCY USA_ATCF_ID USA_LAT USA_LON USA_RECORD USA_STATUS USA_WIND USA_PRES USA_SSHS USA_R34_NE USA_R34_SE USA_R34_SW USA_R34_NW USA_R50_NE USA_R50_SE USA_R50_SW USA_R50_NW USA_R64_NE USA_R64_SE USA_R64_SW USA_R64_NW USA_POCI USA_ROCI USA_RMW USA_EYE TOKYO_LAT TOKYO_LON TOKYO_GRADE TOKYO_WIND TOKYO_PRES TOKYO_R50_DIR TOKYO_R50_LONG TOKYO_R50_SHORT TOKYO_R30_DIR TOKYO_R30_LONG TOKYO_R30_SHORT TOKYO_LAND CMA_LAT CMA_LON CMA_CAT CMA_WIND CMA_PRES HKO_LAT HKO_LON HKO_CAT HKO_WIND HKO_PRES NEWDELHI_LAT NEWDELHI_LON NEWDELHI_GRADE NEWDELHI_WIND NEWDELHI_PRES NEWDELHI_CI NEWDELHI_DP NEWDELHI_POCI REUNION_LAT REUNION_LON REUNION_TYPE REUNION_WIND REUNION_PRES REUNION_TNUM REUNION_CI REUNION_RMW REUNION_R34_NE REUNION_R34_SE REUNION_R34_SW REUNION_R34_NW REUNION_R50_NE REUNION_R50_SE REUNION_R50_SW REUNION_R50_NW REUNION_R64_NE REUNION_R64_SE REUNION_R64_SW REUNION_R64_NW BOM_LAT BOM_LON BOM_TYPE BOM_WIND BOM_PRES BOM_TNUM BOM_CI BOM_RMW BOM_R34_NE BOM_R34_SE BOM_R34_SW BOM_R34_NW BOM_R50_NE BOM_R50_SE BOM_R50_SW BOM_R50_NW BOM_R64_NE BOM_R64_SE BOM_R64_SW BOM_R64_NW BOM_ROCI BOM_POCI BOM_EYE BOM_POS_METHOD BOM_PRES_METHOD NADI_LAT NADI_LON NADI_CAT NADI_WIND NADI_PRES WELLINGTON_LAT WELLINGTON_LON WELLINGTON_WIND WELLINGTON_PRES DS824_LAT DS824_LON DS824_STAGE DS824_WIND DS824_PRES TD9636_LAT TD9636_LON TD9636_STAGE TD9636_WIND TD9636_PRES TD9635_LAT TD9635_LON TD9635_WIND TD9635_PRES TD9635_ROCI NEUMANN_LAT NEUMANN_LON NEUMANN_CLASS NEUMANN_WIND NEUMANN_PRES MLC_LAT MLC_LON MLC_CLASS MLC_WIND MLC_PRES USA_GUST BOM_GUST BOM_GUST_PER REUNION_GUST REUNION_GUST_PER USA_SEAHGT USA_SEARAD_NE USA_SEARAD_SE USA_SEARAD_SW USA_SEARAD_NW STORM_SPEED STORM_DIR
1911233N19143 1911 52 WP MM NOT_NAMED 1911-08-21 09:00:00 NR 18.8000 143.300 main 1792 1757 __________O___ -1 18.8000 143.300 7 17 268
1911233N19143 1911 52 WP MM NOT_NAMED 1911-08-21 12:00:00 NR 18.7673 142.393 main 1757 1740 __________P___ -1 18.7673 142.393 7 17 268
1911233N19143 1911 52 WP MM NOT_NAMED 1911-08-21 15:00:00 NR 18.7354 141.539 main 1736 1703 __________P___ -1 18.7354 141.539 7 15 268
1911233N19143 1911 52 WP MM NOT_NAMED 1911-08-21 18:00:00 NR 18.7107 140.791 main 1703 1671 __________P___ -1 18.7107 140.791 7 13 268
1911233N19143 1911 52 WP MM NOT_NAMED 1911-08-21 21:00:00 NR 18.7000 140.200 main 1671 1650 __________O___ -1 18.7000 140.200 7 9 270
1911233N19143 1911 52 WP MM NOT_NAMED 1911-08-22 00:00:00 NR 18.7085 139.798 main 1650 1634 __________P___ -1 18.7085 139.798 7 6 273
1911233N19143 1911 52 WP MM NOT_NAMED 1911-08-22 03:00:00 NR 18.7324 139.530 main 1634 1613 __________P___ -1 18.7324 139.530 7 5 277
1911233N19143 1911 52 WP MM NOT_NAMED 1911-08-22 06:00:00 NR 18.7652 139.323 main 1613 1603 __________P___ -1 18.7652 139.323 7 4 279
1911233N19143 1911 52 WP MM NOT_NAMED 1911-08-22 09:00:00 NR 18.8000 139.100 main 1603 1592 __________O___ -1 18.8000 139.100 7 4 277
1911233N19143 1911 52 WP MM NOT_NAMED 1911-08-22 12:00:00 NR 18.8228 138.859 main 1592 1577 __________P___ -1 18.8228 138.859 7 5 275
1911233N19143 1911 52 WP MM NOT_NAMED 1911-08-22 15:00:00 NR 18.8462 138.574 main 1577 1547 __________P___ -1 18.8462 138.574 7 6 274
1911233N19143 1911 52 WP MM NOT_NAMED 1911-08-22 18:00:00 NR 18.8717 138.178 main 1547 1497 __________P___ -1 18.8717 138.178 7 9 273
1911233N19143 1911 52 WP MM NOT_NAMED 1911-08-22 21:00:00 NR 18.9000 137.600 main 1497 1432 __________O___ -1 18.9000 137.600 7 13 272
1911233N19143 1911 52 WP MM NOT_NAMED 1911-08-23 00:00:00 NR 18.9205 136.818 main 1423 1342 __________P___ -1 18.9205 136.818 7 17 271
1911233N19143 1911 52 WP MM NOT_NAMED 1911-08-23 03:00:00 NR 18.9413 135.848 main 1333 1247 __________P___ -1 18.9413 135.848 7 20 271
1911233N19143 1911 52 WP MM NOT_NAMED 1911-08-23 06:00:00 NR 18.9662 134.730 main 1237 1134 __________P___ -1 18.9662 134.730 7 22 272
1911233N19143 1911 52 WP MM NOT_NAMED 1911-08-23 09:00:00 NR 19.0000 133.500 main 1125 1006 __________O___ -1 19.0000 133.500 7 25 272
1911233N19143 1911 52 WP MM NOT_NAMED 1911-08-23 12:00:00 NR 19.0543 132.049 main 997 877 __________P___ -1 19.0543 132.049 7 28 272
1911233N19143 1911 52 WP MM NOT_NAMED 1911-08-23 15:00:00 NR 19.1108 130.527 main 866 731 __________P___ -1 19.1108 130.527 7 28 272
1911233N19143 1911 52 WP MM NOT_NAMED 1911-08-23 18:00:00 NR 19.1606 129.116 main 721 606 __________P___ -1 19.1606 129.116 7 24 272
1911233N19143 1911 52 WP MM NOT_NAMED 1911-08-23 21:00:00 NR 19.2000 128.000 main 606 544 __________O___ -1 19.2000 128.000 7 16 272
1911233N19143 1911 52 WP MM NOT_NAMED 1911-08-24 00:00:00 NR 19.2255 127.421 main 544 523 __________P___ -1 19.2255 127.421 7 8 274
1911233N19143 1911 52 WP MM NOT_NAMED 1911-08-24 03:00:00 NR 19.2500 127.143 main 513 504 __________P___ -1 19.2500 127.143 7 4 277
1911233N19143 1911 52 WP MM NOT_NAMED 1911-08-24 06:00:00 NR 19.2747 127.018 main 504 494 __________P___ -1 19.2747 127.018 7 2 282
1911233N19143 1911 52 WP MM NOT_NAMED 1911-08-24 09:00:00 NR 19.3000 126.900 main 494 463 __________O___ -1 19.3000 126.900 7 4 277
1911233N19143 1911 52 WP MM NOT_NAMED 1911-08-24 12:00:00 NR 19.3252 126.555 main 463 422 __________P___ -1 19.3252 126.555 7 7 274
1911233N19143 1911 52 WP MM NOT_NAMED 1911-08-24 15:00:00 NR 19.3503 126.193 main 425 394 __________P___ -1 19.3503 126.193 7 7 274
1911233N19143 1911 52 WP MM NOT_NAMED 1911-08-24 18:00:00 NR 19.3752 125.833 main 384 354 __________P___ -1 19.3752 125.833 7 7 274
1911233N19143 1911 52 WP MM NOT_NAMED 1911-08-24 21:00:00 NR 19.4000 125.500 main 354 324 __________O___ -1 19.4000 125.500 7 6 273
1911233N19143 1911 52 WP MM NOT_NAMED 1911-08-25 00:00:00 NR 19.4084 125.225 main 324 305 __________P___ -1 19.4084 125.225 7 5 272
1911233N19143 1911 52 WP MM NOT_NAMED 1911-08-25 03:00:00 NR 19.4195 124.977 main 305 285 __________P___ -1 19.4195 124.977 7 5 275
1911233N19143 1911 52 WP MM NOT_NAMED 1911-08-25 06:00:00 NR 19.4459 124.741 main 276 262 __________P___ -1 19.4459 124.741 7 5 280
1911233N19143 1911 52 WP MM NOT_NAMED 1911-08-25 09:00:00 NR 19.5000 124.500 main 262 249 __________O___ -1 19.5000 124.500 7 5 287
1911233N19143 1911 52 WP MM NOT_NAMED 1911-08-25 12:00:00 NR 19.5835 124.268 main 249 230 __________P___ -1 19.5835 124.268 7 5 294
1911233N19143 1911 52 WP MM NOT_NAMED 1911-08-25 15:00:00 NR 19.6966 124.024 main 230 222 __________P___ -1 19.6966 124.024 7 6 297
1911233N19143 1911 52 WP MM NOT_NAMED 1911-08-25 18:00:00 NR 19.8364 123.743 main 214 209 __________P___ -1 19.8364 123.743 7 7 297
1911233N19143 1911 52 WP MM NOT_NAMED 1911-08-25 21:00:00 NR 20.0000 123.400 main 213 203 __________O___ -1 20.0000 123.400 7 8 292
1911233N19143 1911 52 WP MM NOT_NAMED 1911-08-26 00:00:00 NR 20.1424 122.956 main 203 203 __________P___ -1 20.1424 122.956 7 9 289
1911233N19143 1911 52 WP MM NOT_NAMED 1911-08-26 03:00:00 NR 20.3107 122.452 main 213 193 __________P___ -1 20.3107 122.452 7 10 291
1911233N19143 1911 52 WP MM NOT_NAMED 1911-08-26 06:00:00 NR 20.5236 121.921 main 187 133 __________P___ -1 20.5236 121.921 7 11 296
1911233N19143 1911 52 WP MM NOT_NAMED 1911-08-26 09:00:00 NR 20.8000 121.400 main 133 89 __________O___ -1 20.8000 121.400 7 11 302
1911233N19143 1911 52 WP MM NOT_NAMED 1911-08-26 12:00:00 NR 21.1198 120.895 main 89 49 __________P___ -1 21.1198 120.895 7 12 307
1911233N19143 1911 52 WP MM NOT_NAMED 1911-08-26 15:00:00 NR 21.5079 120.410 main 54 45 __________P___ -1 21.5079 120.410 7 12 315
1911233N19143 1911 52 WP MM NOT_NAMED 1911-08-26 18:00:00 NR 21.9669 119.970 main 63 56 __________P___ -1 21.9669 119.970 7 12 323
1911233N19143 1911 52 WP MM NOT_NAMED 1911-08-26 21:00:00 NR 22.5000 119.600 main 70 65 __________O___ -1 22.5000 119.600 7 13 332
1911233N19143 1911 52 WP MM NOT_NAMED 1911-08-27 00:00:00 NR 23.1228 119.304 main 81 81 __________P___ -1 23.1228 119.304 7 14 340
1911233N19143 1911 52 WP MM NOT_NAMED 1911-08-27 03:00:00 NR 23.8118 119.080 main 93 23 __________P___ -1 23.8118 119.080 7 14 346
1911233N19143 1911 52 WP MM NOT_NAMED 1911-08-27 06:00:00 NR 24.5200 118.916 main 23 0 __________P___ -1 24.5200 118.916 7 14 350
1911233N19143 1911 52 WP MM NOT_NAMED 1911-08-27 09:00:00 NR 25.2000 118.800 main 0 0 __________O___ -1 25.2000 118.800 7 13 352
1911233N19143 1911 52 WP MM NOT_NAMED 1911-08-27 12:00:00 NR 25.8222 118.702 main 0 0 __________P___ -1 25.8222 118.702 7 12 354
1911233N19143 1911 52 WP MM NOT_NAMED 1911-08-27 15:00:00 NR 26.4046 118.646 main 0 0 __________P___ -1 26.4046 118.646 7 11 356
1911233N19143 1911 52 WP MM NOT_NAMED 1911-08-27 18:00:00 NR 26.9348 118.618 main 0 0 __________P___ -1 26.9348 118.618 7 10 358
1911233N19143 1911 52 WP MM NOT_NAMED 1911-08-27 21:00:00 NR 27.4000 118.600 main 0 0 __________O___ -1 27.4000 118.600 7 9 358
1911233N19143 1911 52 WP MM NOT_NAMED 1911-08-28 00:00:00 NR 27.7937 118.564 main 0 0 __________P___ -1 27.7937 118.564 7 7 355
1911233N19143 1911 52 WP MM NOT_NAMED 1911-08-28 03:00:00 NR 28.1249 118.535 main 0 0 __________P___ -1 28.1249 118.535 7 6 356
1911233N19143 1911 52 WP MM NOT_NAMED 1911-08-28 06:00:00 NR 28.4187 118.514 main 0 0 __________P___ -1 28.4187 118.514 7 6 357
1911233N19143 1911 52 WP MM NOT_NAMED 1911-08-28 09:00:00 NR 28.7000 118.500 main 0 0 __________O___ -1 28.7000 118.500 7 5 0
1911233N19143 1911 52 WP MM NOT_NAMED 1911-08-28 12:00:00 NR 28.9422 118.493 main 0 0 __________P___ -1 28.9422 118.493 7 5 358
1911233N19143 1911 52 WP MM NOT_NAMED 1911-08-28 15:00:00 NR 29.1876 118.492 main 0 0 __________P___ -1 29.1876 118.492 7 5 0
1911233N19143 1911 52 WP MM NOT_NAMED 1911-08-28 18:00:00 NR 29.4891 118.496 main 0 0 __________P___ -1 29.4891 118.496 7 7 0
1911233N19143 1911 52 WP MM NOT_NAMED 1911-08-28 21:00:00 NR 29.9000 118.500 main 0 0 __________O___ -1 29.9000 118.500 7 10 0
1911233N19143 1911 52 WP MM NOT_NAMED 1911-08-29 00:00:00 NR 30.4932 118.496 main 0 0 __________P___ -1 30.4932 118.496 7 13 359
1911233N19143 1911 52 WP MM NOT_NAMED 1911-08-29 03:00:00 NR 31.1952 118.493 main 0 0 __________P___ -1 31.1952 118.493 7 15 359
1911233N19143 1911 52 WP MM NOT_NAMED 1911-08-29 06:00:00 NR 31.9496 118.493 main 0 0 __________P___ -1 31.9496 118.493 7 15 1
1911233N19143 1911 52 WP MM NOT_NAMED 1911-08-29 09:00:00 NR 32.7000 118.500 main 0 0 __________O___ -1 32.7000 118.500 7 15 0
1911233N19143 1911 52 WP MM NOT_NAMED 1911-08-29 12:00:00 NR 33.4023 118.516 main 0 0 __________P___ -1 33.4023 118.516 7 14 2
1911233N19143 1911 52 WP MM NOT_NAMED 1911-08-29 15:00:00 NR 34.0597 118.539 main 0 0 __________P___ -1 34.0597 118.539 7 13 2
1911233N19143 1911 52 WP MM NOT_NAMED 1911-08-29 18:00:00 NR 34.6873 118.568 main 0 0 __________P___ -1 34.6873 118.568 7 12 3
1911233N19143 1911 52 WP MM NOT_NAMED 1911-08-29 21:00:00 NR 35.3000 118.600 main 0 __________O___ -1 35.3000 118.600 7 12 2

Digital Typhoon Data and Search

About IBTrACS Database

This database is a web-friendly format of International Best Track Archive for Climate Stewardship (IBTrACS), a global best track data archive curated by NOAA dating back to 1842.

Updated: 2021-10-21